createdAt,value
2019-04-03T00:00:50.229Z,12.80
2019-04-03T00:03:17.523Z,12.60
2019-04-03T00:05:44.562Z,12.60
2019-04-03T00:08:11.581Z,12.60
2019-04-03T00:10:39.562Z,12.70
2019-04-03T00:13:10.353Z,12.70
2019-04-03T00:15:37.962Z,12.60
2019-04-03T00:18:04.957Z,12.50
2019-04-03T00:20:31.795Z,12.50
2019-04-03T00:22:58.750Z,12.50
2019-04-03T00:25:25.753Z,12.50
2019-04-03T00:27:52.968Z,12.50
2019-04-03T00:30:20.516Z,12.50
2019-04-03T00:32:49.079Z,12.40
2019-04-03T00:35:16.414Z,12.30
2019-04-03T00:37:43.454Z,12.30
2019-04-03T00:40:10.754Z,12.30
2019-04-03T00:42:37.989Z,12.30
2019-04-03T00:45:06.209Z,12.40
2019-04-03T00:47:33.615Z,12.40
2019-04-03T00:50:00.614Z,12.40
2019-04-03T00:52:28.097Z,12.50
2019-04-03T00:54:56.582Z,12.60
2019-04-03T00:57:25.911Z,12.60
2019-04-03T00:59:53.069Z,12.80
2019-04-03T01:02:20.590Z,12.90
2019-04-03T01:04:47.582Z,12.80
2019-04-03T01:07:24.527Z,13.00
2019-04-03T01:10:02.697Z,12.90
2019-04-03T01:12:32.796Z,13.10
2019-04-03T01:15:08.911Z,12.90
2019-04-03T01:17:38.041Z,12.90
2019-04-03T01:20:06.401Z,12.90
2019-04-03T01:22:33.882Z,12.80
2019-04-03T01:25:00.749Z,12.80
2019-04-03T01:27:27.985Z,12.80
2019-04-03T01:29:55.194Z,12.70
2019-04-03T01:32:22.208Z,12.70
2019-04-03T01:34:49.162Z,12.80
2019-04-03T01:37:16.787Z,12.90
2019-04-03T01:39:44.838Z,12.90
2019-04-03T01:42:11.837Z,13.00
2019-04-03T01:44:39.143Z,12.90
2019-04-03T01:47:06.252Z,12.80
2019-04-03T01:49:33.126Z,12.70
2019-04-03T01:52:01.397Z,12.70
2019-04-03T01:54:29.623Z,12.60
2019-04-03T01:56:56.904Z,12.60
2019-04-03T01:59:24.083Z,12.60
2019-04-03T02:01:51.751Z,12.50
2019-04-03T02:04:18.978Z,12.40
2019-04-03T02:06:46.463Z,12.40
2019-04-03T02:09:15.280Z,12.40
2019-04-03T02:11:43.016Z,12.50
2019-04-03T02:14:10.155Z,12.40
2019-04-03T02:16:37.271Z,12.40
2019-04-03T02:19:04.294Z,12.30
2019-04-03T02:21:31.917Z,12.20
2019-04-03T02:23:59.573Z,12.20
2019-04-03T02:26:27.693Z,12.20
2019-04-03T02:28:54.570Z,12.20
2019-04-03T02:31:21.446Z,12.10
2019-04-03T02:33:48.507Z,12.10
2019-04-03T02:36:15.567Z,12.10
2019-04-03T02:38:42.434Z,12.20
2019-04-03T02:41:09.428Z,12.20
2019-04-03T02:43:37.590Z,12.20
2019-04-03T02:46:04.674Z,12.20
2019-04-03T02:48:31.570Z,12.20
2019-04-03T02:50:58.967Z,12.10
2019-04-03T02:53:27.485Z,12.10
2019-04-03T02:55:54.751Z,12.00
2019-04-03T02:58:22.825Z,12.00
2019-04-03T03:00:51.736Z,12.00
2019-04-03T03:03:18.668Z,12.00
2019-04-03T03:05:45.702Z,12.00
2019-04-03T03:08:12.704Z,12.00
2019-04-03T03:10:39.915Z,12.00
2019-04-03T03:13:07.912Z,11.90
2019-04-03T03:15:36.054Z,11.90
2019-04-03T03:18:03.862Z,11.90
2019-04-03T03:20:32.143Z,11.90
2019-04-03T03:22:59.806Z,12.00
2019-04-03T03:25:27.429Z,12.00
2019-04-03T03:27:55.177Z,12.00
2019-04-03T03:30:39.609Z,11.90
2019-04-03T03:32:54.979Z,12.00
2019-04-03T03:35:29.471Z,12.10
2019-04-03T03:37:50.457Z,12.00
2019-04-03T03:40:18.518Z,12.00
2019-04-03T03:42:46.206Z,12.00
2019-04-03T03:45:13.383Z,12.00
2019-04-03T03:47:41.088Z,11.90
2019-04-03T03:50:08.394Z,11.90
2019-04-03T03:52:38.177Z,12.00
2019-04-03T03:55:07.248Z,12.00
2019-04-03T03:57:38.024Z,11.90
2019-04-03T04:00:05.467Z,11.80
2019-04-03T04:02:34.228Z,11.80
2019-04-03T04:05:01.765Z,11.80
2019-04-03T04:07:29.581Z,11.80
2019-04-03T04:09:56.771Z,11.70
2019-04-03T04:12:24.363Z,11.70
2019-04-03T04:14:54.356Z,11.70
2019-04-03T04:17:20.962Z,11.70
2019-04-03T04:19:48.264Z,11.70
2019-04-03T04:22:17.606Z,11.60
2019-04-03T04:24:44.963Z,11.60
2019-04-03T04:27:12.164Z,11.60
2019-04-03T04:29:41.103Z,11.60
2019-04-03T04:32:08.362Z,11.70
2019-04-03T04:34:35.343Z,11.60
2019-04-03T04:37:03.155Z,11.50
2019-04-03T04:39:30.600Z,11.50
2019-04-03T04:41:58.499Z,11.50
2019-04-03T04:44:25.516Z,11.50
2019-04-03T04:46:52.586Z,11.50
2019-04-03T04:49:20.831Z,11.50
2019-04-03T04:51:48.626Z,11.50
2019-04-03T04:54:15.830Z,11.50
2019-04-03T04:56:43.021Z,11.40
2019-04-03T04:59:09.971Z,11.40
2019-04-03T05:01:37.414Z,11.40
2019-04-03T05:04:04.313Z,11.50
2019-04-03T05:06:31.254Z,11.40
2019-04-03T05:08:58.106Z,11.50
2019-04-03T05:11:26.418Z,11.50
2019-04-03T05:13:53.439Z,11.50
2019-04-03T05:16:20.935Z,11.60
2019-04-03T05:18:49.517Z,11.50
2019-04-03T05:21:16.579Z,11.60
2019-04-03T05:23:43.862Z,11.50
2019-04-03T05:26:10.882Z,11.50
2019-04-03T05:28:38.118Z,11.40
2019-04-03T05:31:07.640Z,11.40
2019-04-03T05:33:34.058Z,11.40
2019-04-03T05:36:01.257Z,11.40
2019-04-03T05:38:28.218Z,11.40
2019-04-03T05:40:56.503Z,11.30
2019-04-03T05:43:24.058Z,11.40
2019-04-03T05:45:51.166Z,11.40
2019-04-03T05:48:18.531Z,11.30
2019-04-03T05:50:45.942Z,11.40
2019-04-03T05:53:12.886Z,11.30
2019-04-03T05:55:41.094Z,11.30
2019-04-03T05:58:08.997Z,11.30
2019-04-03T06:00:38.168Z,11.30
2019-04-03T06:03:05.109Z,11.40
2019-04-03T06:05:32.308Z,11.40
2019-04-03T06:07:59.149Z,11.50
2019-04-03T06:10:28.186Z,11.40
2019-04-03T06:12:55.063Z,11.40
2019-04-03T06:15:22.822Z,11.50
2019-04-03T06:17:51.223Z,11.50
2019-04-03T06:20:19.034Z,11.40
2019-04-03T06:22:46.010Z,11.40
2019-04-03T06:25:13.963Z,11.40
2019-04-03T06:27:43.977Z,11.30
2019-04-03T06:30:32.070Z,11.40
2019-04-03T06:33:01.744Z,11.40
2019-04-03T06:35:28.334Z,11.30
2019-04-03T06:37:55.361Z,11.30
2019-04-03T06:40:22.378Z,11.20
2019-04-03T06:42:49.357Z,11.30
2019-04-03T06:45:16.362Z,11.30
2019-04-03T06:47:43.378Z,11.20
2019-04-03T06:50:12.532Z,11.30
2019-04-03T06:52:39.238Z,11.40
2019-04-03T06:55:06.362Z,11.50
2019-04-03T06:57:33.243Z,11.60
2019-04-03T07:00:00.118Z,11.70
2019-04-03T07:02:27.997Z,11.70
2019-04-03T07:04:55.824Z,11.80
2019-04-03T07:07:33.295Z,11.80
2019-04-03T07:09:51.530Z,11.80
2019-04-03T07:12:18.475Z,11.80
2019-04-03T07:14:45.531Z,11.80
2019-04-03T07:17:12.826Z,11.80
2019-04-03T07:19:40.378Z,11.80
2019-04-03T07:22:07.248Z,11.70
2019-04-03T07:24:34.273Z,11.70
2019-04-03T07:27:01.126Z,11.80
2019-04-03T07:29:29.565Z,11.90
2019-04-03T07:31:56.530Z,11.70
2019-04-03T07:34:23.489Z,11.70
2019-04-03T07:36:50.355Z,11.70
2019-04-03T07:39:19.078Z,11.70
2019-04-03T07:41:46.269Z,11.60
2019-04-03T07:44:13.240Z,11.60
2019-04-03T07:46:40.460Z,11.60
2019-04-03T07:49:09.060Z,11.50
2019-04-03T07:51:36.731Z,11.40
2019-04-03T07:54:04.880Z,11.40
2019-04-03T07:56:32.293Z,11.50
2019-04-03T07:59:02.675Z,11.50
2019-04-03T08:01:28.620Z,11.50
2019-04-03T08:03:55.625Z,11.40
2019-04-03T08:06:22.505Z,11.40
2019-04-03T08:08:52.580Z,11.40
2019-04-03T08:11:19.644Z,11.40
2019-04-03T08:13:46.862Z,11.40
2019-04-03T08:16:15.811Z,11.40
2019-04-03T08:18:43.182Z,11.40
2019-04-03T08:21:10.426Z,11.20
2019-04-03T08:23:57.386Z,11.10
2019-04-03T08:26:26.663Z,10.80
2019-04-03T08:28:53.643Z,10.50
2019-04-03T08:31:21.023Z,10.50
2019-04-03T08:33:48.583Z,10.60
2019-04-03T08:36:24.327Z,10.50
2019-04-03T08:38:45.512Z,10.60
2019-04-03T08:41:12.606Z,10.50
2019-04-03T08:43:39.482Z,10.50
2019-04-03T08:46:09.730Z,10.40
2019-04-03T08:48:35.762Z,10.50
2019-04-03T08:51:03.789Z,10.40
2019-04-03T08:53:31.330Z,10.30
2019-04-03T08:55:58.505Z,10.30
2019-04-03T08:58:26.595Z,10.10
2019-04-03T09:00:53.847Z,10.00
2019-04-03T09:03:21.059Z,10.10
2019-04-03T09:05:50.260Z,10.10
2019-04-03T09:08:16.709Z,10.10
2019-04-03T09:10:43.681Z,10.00
2019-04-03T09:13:17.811Z,9.80
2019-04-03T09:15:39.699Z,9.70
2019-04-03T09:18:07.309Z,9.70
2019-04-03T09:20:36.007Z,9.60
2019-04-03T09:23:03.712Z,9.70
2019-04-03T09:25:31.620Z,9.70
2019-04-03T09:27:59.866Z,9.60
2019-04-03T09:30:27.199Z,9.50
2019-04-03T09:32:54.546Z,9.40
2019-04-03T09:35:21.405Z,9.40
2019-04-03T09:37:48.771Z,9.40
2019-04-03T09:40:17.240Z,9.40
2019-04-03T09:42:44.843Z,9.40
2019-04-03T09:45:13.890Z,9.40
2019-04-03T09:47:41.158Z,9.40
2019-04-03T09:50:08.741Z,9.30
2019-04-03T09:52:41.422Z,9.30
2019-04-03T09:55:05.125Z,9.20
2019-04-03T09:57:32.510Z,9.30
2019-04-03T09:59:59.665Z,9.30
2019-04-03T10:02:26.725Z,9.50
2019-04-03T10:04:57.296Z,9.50
2019-04-03T10:07:23.290Z,9.60
2019-04-03T10:09:50.624Z,9.40
2019-04-03T10:12:19.442Z,9.30
2019-04-03T10:14:47.842Z,9.30
2019-04-03T10:17:14.767Z,9.30
2019-04-03T10:19:44.965Z,9.30
2019-04-03T10:22:11.149Z,9.30
2019-04-03T10:24:38.033Z,9.30
2019-04-03T10:27:24.917Z,9.30
2019-04-03T10:30:05.261Z,9.30
2019-04-03T10:32:32.407Z,9.30
2019-04-03T10:34:59.405Z,9.40
2019-04-03T10:37:26.580Z,9.40
2019-04-03T10:39:54.002Z,9.40
2019-04-03T10:42:21.449Z,9.50
2019-04-03T10:44:48.429Z,9.60
2019-04-03T10:47:15.468Z,9.60
2019-04-03T10:49:42.792Z,9.70
2019-04-03T10:52:12.641Z,9.80
2019-04-03T10:54:39.298Z,9.90
2019-04-03T10:57:06.406Z,9.80
2019-04-03T10:59:33.679Z,9.80
2019-04-03T11:02:00.877Z,9.80
2019-04-03T11:04:27.902Z,9.80
2019-04-03T11:06:54.898Z,9.80
2019-04-03T11:09:22.372Z,10.00
2019-04-03T11:11:49.636Z,10.00
2019-04-03T11:14:16.611Z,10.10
2019-04-03T11:16:45.491Z,10.20
2019-04-03T11:19:12.570Z,10.40
2019-04-03T11:21:39.882Z,10.50
2019-04-03T11:24:07.355Z,10.50
2019-04-03T11:26:34.844Z,10.50
2019-04-03T11:29:01.741Z,10.40
2019-04-03T11:31:33.178Z,10.20
2019-04-03T11:33:58.727Z,10.20
2019-04-03T11:36:29.952Z,10.20
2019-04-03T11:39:06.565Z,10.20
2019-04-03T11:41:24.438Z,10.20
2019-04-03T11:43:52.087Z,10.20
2019-04-03T11:46:19.648Z,10.20
2019-04-03T11:48:48.374Z,10.20
2019-04-03T11:51:15.366Z,10.20
2019-04-03T11:53:45.224Z,10.20
2019-04-03T11:56:13.276Z,10.20
2019-04-03T11:58:40.962Z,10.30
2019-04-03T12:01:09.811Z,10.30
2019-04-03T12:03:38.060Z,10.30
2019-04-03T12:06:05.678Z,10.50
2019-04-03T12:08:33.089Z,10.70
2019-04-03T12:11:00.500Z,10.80
2019-04-03T12:13:27.641Z,10.90
2019-04-03T12:15:57.486Z,11.00
2019-04-03T12:18:24.042Z,10.90
2019-04-03T12:20:52.118Z,10.80
2019-04-03T12:23:20.304Z,10.80
2019-04-03T12:25:47.982Z,10.70
2019-04-03T12:28:17.766Z,10.40
2019-04-03T12:30:44.300Z,10.40
2019-04-03T12:33:11.338Z,10.50
2019-04-03T12:35:40.966Z,10.50
2019-04-03T12:38:07.397Z,10.60
2019-04-03T12:40:34.626Z,10.70
2019-04-03T12:43:02.155Z,10.60
2019-04-03T12:45:29.201Z,10.50
2019-04-03T12:47:56.636Z,10.50
2019-04-03T12:50:26.337Z,10.40
2019-04-03T12:52:52.946Z,10.20
2019-04-03T12:55:20.165Z,10.20
2019-04-03T12:57:47.721Z,10.30
2019-04-03T13:00:15.771Z,10.30
2019-04-03T13:02:43.761Z,10.30
2019-04-03T13:05:12.142Z,10.30
2019-04-03T13:07:39.299Z,10.20
2019-04-03T13:10:08.356Z,10.20
2019-04-03T13:12:37.364Z,10.20
2019-04-03T13:15:06.776Z,10.30
2019-04-03T13:17:33.879Z,10.40
2019-04-03T13:20:04.316Z,10.50
2019-04-03T13:22:30.042Z,10.60
2019-04-03T13:24:56.957Z,10.70
2019-04-03T13:27:23.876Z,10.80
2019-04-03T13:29:50.770Z,10.80
2019-04-03T13:32:17.944Z,10.90
2019-04-03T13:34:45.247Z,11.00
2019-04-03T13:37:12.493Z,11.00
2019-04-03T13:39:39.726Z,11.10
2019-04-03T13:42:06.722Z,11.20
2019-04-03T13:44:34.056Z,11.20
2019-04-03T13:47:01.124Z,11.10
2019-04-03T13:49:30.198Z,11.00
2019-04-03T13:52:01.740Z,11.10
2019-04-03T13:54:26.845Z,10.90
2019-04-03T13:56:54.436Z,10.80
2019-04-03T13:59:24.436Z,10.90
2019-04-03T14:01:50.879Z,10.80
2019-04-03T14:04:18.078Z,10.80
2019-04-03T14:06:45.176Z,10.70
2019-04-03T14:09:12.067Z,10.60
2019-04-03T14:11:39.889Z,10.60
2019-04-03T14:14:06.896Z,10.60
2019-04-03T14:16:35.420Z,10.60
2019-04-03T14:19:03.102Z,10.50
2019-04-03T14:21:30.137Z,10.60
2019-04-03T14:23:57.087Z,10.50
2019-04-03T14:26:24.049Z,10.50
2019-04-03T14:28:51.002Z,10.40
2019-04-03T14:31:18.658Z,10.30
2019-04-03T14:33:47.032Z,10.20
2019-04-03T14:36:14.563Z,10.20
2019-04-03T14:38:43.165Z,10.10
2019-04-03T14:41:10.724Z,10.00
2019-04-03T14:43:38.366Z,10.10
2019-04-03T14:46:05.404Z,10.00
2019-04-03T14:48:32.808Z,10.10
2019-04-03T14:51:00.048Z,10.10
2019-04-03T14:53:26.924Z,10.00
2019-04-03T14:55:54.068Z,9.90
2019-04-03T14:58:21.497Z,9.80
2019-04-03T15:00:49.469Z,9.80
2019-04-03T15:03:17.036Z,9.80
2019-04-03T15:05:44.912Z,9.70
2019-04-03T15:08:12.181Z,9.60
2019-04-03T15:10:39.313Z,9.60
2019-04-03T15:13:06.809Z,9.50
2019-04-03T15:15:34.386Z,9.40
2019-04-03T15:18:02.175Z,9.30
2019-04-03T15:20:29.743Z,9.20
2019-04-03T15:22:57.319Z,9.20
2019-04-03T15:25:24.882Z,9.10
2019-04-03T15:27:51.895Z,9.10
2019-04-03T15:30:19.093Z,9.00
2019-04-03T15:32:45.979Z,9.00
2019-04-03T15:35:13.057Z,9.00
2019-04-03T15:37:41.541Z,8.90
2019-04-03T15:40:09.288Z,8.80
2019-04-03T15:42:38.453Z,8.80
2019-04-03T15:45:07.716Z,8.70
2019-04-03T15:47:39.581Z,8.70
2019-04-03T15:50:06.476Z,8.70
2019-04-03T15:52:33.782Z,8.60
2019-04-03T15:55:03.601Z,8.60
2019-04-03T15:57:30.016Z,8.60
2019-04-03T15:59:57.949Z,8.50
2019-04-03T16:02:27.764Z,8.50
2019-04-03T16:04:58.098Z,8.50
2019-04-03T16:07:24.576Z,8.50
2019-04-03T16:09:52.016Z,8.50
2019-04-03T16:12:19.100Z,8.50
2019-04-03T16:14:46.310Z,8.60
2019-04-03T16:17:13.842Z,8.60
2019-04-03T16:19:43.353Z,8.70
2019-04-03T16:22:11.103Z,8.70
2019-04-03T16:24:38.541Z,8.70
2019-04-03T16:27:07.972Z,8.70
2019-04-03T16:29:36.167Z,8.70
2019-04-03T16:32:03.875Z,8.60
2019-04-03T16:34:31.216Z,8.60
2019-04-03T16:37:16.656Z,8.60
2019-04-03T16:39:43.766Z,8.60
2019-04-03T16:42:10.999Z,8.50
2019-04-03T16:44:38.130Z,8.50
2019-04-03T16:47:05.042Z,8.50
2019-04-03T16:49:32.561Z,8.50
2019-04-03T16:51:59.503Z,8.50
2019-04-03T16:54:28.998Z,8.40
2019-04-03T16:56:55.910Z,8.30
2019-04-03T16:59:23.131Z,8.40
2019-04-03T17:01:50.193Z,8.30
2019-04-03T17:04:24.961Z,8.20
2019-04-03T17:06:47.589Z,8.20
2019-04-03T17:09:15.484Z,8.20
2019-04-03T17:11:44.901Z,8.20
2019-04-03T17:14:12.098Z,8.30
2019-04-03T17:16:39.266Z,8.20
2019-04-03T17:19:06.254Z,8.30
2019-04-03T17:21:37.639Z,8.20
2019-04-03T17:24:02.708Z,8.10
2019-04-03T17:26:31.362Z,8.10
2019-04-03T17:29:04.004Z,8.20
2019-04-03T17:31:28.099Z,8.20
2019-04-03T17:33:55.310Z,8.20
2019-04-03T17:36:22.622Z,8.20
2019-04-03T17:38:50.260Z,8.20
2019-04-03T17:41:17.287Z,8.20
2019-04-03T17:43:44.449Z,8.10
2019-04-03T17:46:11.498Z,8.00
2019-04-03T17:48:38.701Z,8.00
2019-04-03T17:51:05.716Z,8.00
2019-04-03T17:53:32.855Z,8.10
2019-04-03T17:55:59.820Z,8.00
2019-04-03T17:58:26.906Z,8.00
2019-04-03T18:00:54.365Z,8.00
2019-04-03T18:03:21.670Z,8.10
2019-04-03T18:05:48.794Z,8.00
2019-04-03T18:08:15.844Z,7.90
2019-04-03T18:10:43.195Z,7.90
2019-04-03T18:13:10.789Z,8.10
2019-04-03T18:15:38.211Z,8.20
2019-04-03T18:18:05.275Z,8.10
2019-04-03T18:20:33.563Z,8.10
2019-04-03T18:23:00.683Z,7.90
2019-04-03T18:25:28.807Z,7.90
2019-04-03T18:27:56.553Z,7.80
2019-04-03T18:30:24.106Z,7.80
2019-04-03T18:32:51.104Z,7.80
2019-04-03T18:35:18.313Z,7.90
2019-04-03T18:37:46.466Z,7.80
2019-04-03T18:40:15.091Z,7.80
2019-04-03T18:42:42.325Z,7.70
2019-04-03T18:45:09.666Z,7.80
2019-04-03T18:47:41.567Z,7.90
2019-04-03T18:50:06.008Z,8.00
2019-04-03T18:52:33.029Z,7.90
2019-04-03T18:54:59.983Z,7.90
2019-04-03T18:57:26.942Z,7.80
2019-04-03T18:59:56.170Z,7.80
2019-04-03T19:02:23.165Z,7.80
2019-04-03T19:05:01.266Z,7.70
2019-04-03T19:07:20.302Z,7.70
2019-04-03T19:09:47.790Z,7.60
2019-04-03T19:12:14.749Z,7.70
2019-04-03T19:14:41.738Z,7.60
2019-04-03T19:17:09.885Z,7.60
2019-04-03T19:19:36.769Z,7.60
2019-04-03T19:22:04.886Z,7.50
2019-04-03T19:24:31.775Z,7.60
2019-04-03T19:26:58.660Z,7.50
2019-04-03T19:29:25.633Z,7.60
2019-04-03T19:31:53.086Z,7.60
2019-04-03T19:34:20.997Z,7.70
2019-04-03T19:36:48.174Z,7.60
2019-04-03T19:39:15.462Z,7.50
2019-04-03T19:41:43.287Z,7.50
2019-04-03T19:44:10.387Z,7.50
2019-04-03T19:46:37.296Z,7.60
2019-04-03T19:49:04.249Z,7.60
2019-04-03T19:51:31.511Z,7.60
2019-04-03T19:53:59.943Z,7.60
2019-04-03T19:56:27.281Z,7.60
2019-04-03T19:58:54.206Z,7.60
2019-04-03T20:01:23.858Z,7.60
2019-04-03T20:03:50.021Z,7.60
2019-04-03T20:06:16.973Z,7.70
2019-04-03T20:08:44.058Z,7.70
2019-04-03T20:11:11.050Z,7.70
2019-04-03T20:13:39.614Z,7.70
2019-04-03T20:16:06.974Z,7.70
2019-04-03T20:18:33.921Z,7.70
2019-04-03T20:21:02.025Z,7.70
2019-04-03T20:23:31.130Z,7.50
2019-04-03T20:25:58.077Z,7.30
2019-04-03T20:28:25.162Z,7.30
2019-04-03T20:30:52.452Z,7.30
2019-04-03T20:33:19.341Z,7.30
2019-04-03T20:35:49.375Z,7.30
2019-04-03T20:38:15.398Z,7.20
2019-04-03T20:40:42.442Z,7.20
2019-04-03T20:43:11.908Z,7.10
2019-04-03T20:45:39.062Z,7.20
2019-04-03T20:48:06.402Z,7.20
2019-04-03T20:50:33.808Z,7.20
2019-04-03T20:53:00.706Z,7.20
2019-04-03T20:55:27.601Z,7.20
2019-04-03T20:57:56.295Z,7.20
2019-04-03T21:00:23.530Z,7.20
2019-04-03T21:02:50.963Z,7.20
2019-04-03T21:05:18.839Z,7.20
2019-04-03T21:07:46.189Z,7.20
2019-04-03T21:10:13.706Z,7.20
2019-04-03T21:12:40.666Z,7.10
2019-04-03T21:15:09.235Z,7.10
2019-04-03T21:17:36.651Z,7.10
2019-04-03T21:20:04.005Z,7.20
2019-04-03T21:22:31.234Z,7.30
2019-04-03T21:24:58.249Z,7.20
2019-04-03T21:27:25.613Z,7.10
2019-04-03T21:29:52.914Z,7.20
2019-04-03T21:32:19.850Z,7.30
2019-04-03T21:34:46.702Z,7.20
2019-04-03T21:37:14.132Z,7.20
2019-04-03T21:39:43.528Z,7.20
2019-04-03T21:42:10.553Z,7.20
2019-04-03T21:44:37.505Z,7.20
2019-04-03T21:47:04.819Z,7.20
2019-04-03T21:49:31.809Z,7.20
2019-04-03T21:51:59.801Z,7.20
2019-04-03T21:54:27.315Z,7.10
2019-04-03T21:56:54.542Z,7.10
2019-04-03T21:59:21.586Z,7.00
2019-04-03T22:02:01.213Z,6.90
2019-04-03T22:04:28.214Z,6.80
2019-04-03T22:06:57.636Z,6.70
2019-04-03T22:09:24.006Z,6.70
2019-04-03T22:11:50.958Z,6.70
2019-04-03T22:14:18.014Z,6.70
2019-04-03T22:16:44.990Z,6.70
2019-04-03T22:19:11.877Z,6.70
2019-04-03T22:21:39.401Z,6.80
2019-04-03T22:24:06.902Z,6.80
2019-04-03T22:26:34.350Z,6.80
2019-04-03T22:29:01.315Z,6.90
2019-04-03T22:31:28.254Z,6.90
2019-04-03T22:33:55.149Z,6.90
2019-04-03T22:36:22.055Z,7.00
2019-04-03T22:38:49.032Z,7.10
2019-04-03T22:41:16.906Z,7.00
2019-04-03T22:43:44.122Z,7.00
2019-04-03T22:46:13.011Z,7.00
2019-04-03T22:48:40.908Z,6.90
2019-04-03T22:51:07.863Z,7.00
2019-04-03T22:53:34.877Z,7.00
2019-04-03T22:56:02.027Z,6.90
2019-04-03T22:58:29.352Z,6.90
2019-04-03T23:00:58.917Z,6.80
2019-04-03T23:03:26.417Z,6.80
2019-04-03T23:05:53.321Z,6.70
2019-04-03T23:08:20.935Z,6.80
2019-04-03T23:10:49.185Z,6.90
2019-04-03T23:13:16.434Z,6.80
2019-04-03T23:15:43.489Z,6.80
2019-04-03T23:18:10.362Z,6.80
2019-04-03T23:20:37.230Z,6.80
2019-04-03T23:23:27.068Z,6.90
2019-04-03T23:25:52.717Z,6.80
2019-04-03T23:28:19.692Z,6.90
2019-04-03T23:30:46.697Z,7.00
2019-04-03T23:33:16.673Z,7.00
2019-04-03T23:35:42.473Z,7.00
2019-04-03T23:38:10.074Z,7.10
2019-04-03T23:40:37.038Z,7.10
2019-04-03T23:43:04.023Z,7.00
2019-04-03T23:45:30.912Z,7.10
2019-04-03T23:47:58.094Z,7.10
2019-04-03T23:50:25.053Z,7.10
2019-04-03T23:52:52.217Z,7.00
2019-04-03T23:55:19.177Z,7.00
2019-04-03T23:57:46.158Z,6.90
